createdAt,value
2018-12-02T00:00:56.733Z,47.77
2018-12-02T00:03:26.166Z,46.00
2018-12-02T00:05:56.752Z,46.67
2018-12-02T00:08:25.849Z,46.93
2018-12-02T00:10:55.164Z,46.60
2018-12-02T00:13:24.658Z,46.17
2018-12-02T00:15:55.120Z,47.13
2018-12-02T00:18:24.432Z,45.47
2018-12-02T00:20:53.740Z,48.17
2018-12-02T00:23:22.985Z,47.67
2018-12-02T00:25:53.491Z,49.73
2018-12-02T00:28:22.724Z,51.33
2018-12-02T00:30:53.961Z,48.43
2018-12-02T00:33:23.176Z,47.93
2018-12-02T00:35:52.542Z,47.30
2018-12-02T00:38:21.726Z,48.33
2018-12-02T00:40:51.586Z,46.73
2018-12-02T00:43:20.958Z,48.07
2018-12-02T00:45:50.253Z,48.87
2018-12-02T00:48:19.548Z,47.53
2018-12-02T00:50:49.585Z,46.70
2018-12-02T00:53:18.806Z,46.27
2018-12-02T00:55:48.143Z,48.10
2018-12-02T00:58:17.521Z,47.70
2018-12-02T01:00:47.428Z,45.07
2018-12-02T01:03:16.716Z,46.00
2018-12-02T01:05:46.714Z,50.67
2018-12-02T01:08:16.436Z,46.13
2018-12-02T01:10:47.021Z,45.60
2018-12-02T01:13:18.081Z,46.00
2018-12-02T01:15:48.930Z,46.63
2018-12-02T01:18:22.109Z,45.17
2018-12-02T01:20:51.471Z,45.03
2018-12-02T01:23:21.645Z,46.67
2018-12-02T01:25:52.017Z,45.83
2018-12-02T01:28:21.700Z,45.73
2018-12-02T01:30:50.953Z,47.17
2018-12-02T01:33:20.236Z,48.00
2018-12-02T01:35:49.569Z,45.13
2018-12-02T01:38:18.875Z,46.73
2018-12-02T01:40:49.099Z,50.07
2018-12-02T01:43:18.353Z,46.03
2018-12-02T01:45:47.788Z,44.87
2018-12-02T01:48:17.152Z,47.47
2018-12-02T01:50:46.541Z,46.77
2018-12-02T01:53:15.737Z,44.57
2018-12-02T01:55:45.034Z,49.30
2018-12-02T01:58:14.315Z,46.13
2018-12-02T02:00:43.579Z,48.07
2018-12-02T02:03:12.831Z,48.00
2018-12-02T02:05:42.135Z,46.33
2018-12-02T02:08:11.745Z,47.57
2018-12-02T02:10:41.028Z,46.90
2018-12-02T02:13:10.367Z,49.33
2018-12-02T02:15:39.741Z,46.23
2018-12-02T02:18:08.964Z,47.77
2018-12-02T02:20:38.243Z,45.33
2018-12-02T02:23:11.237Z,43.80
2018-12-02T02:25:40.843Z,49.37
2018-12-02T02:28:09.982Z,47.27
2018-12-02T02:30:39.406Z,48.30
2018-12-02T02:33:08.629Z,47.43
2018-12-02T02:35:37.857Z,44.63
2018-12-02T02:38:07.382Z,48.20
2018-12-02T02:40:36.755Z,46.93
2018-12-02T02:43:06.068Z,45.20
2018-12-02T02:45:35.278Z,49.40
2018-12-02T02:48:04.393Z,47.07
2018-12-02T02:50:33.587Z,46.00
2018-12-02T02:53:03.240Z,51.40
2018-12-02T02:55:32.658Z,48.07
2018-12-02T02:58:01.923Z,48.10
2018-12-02T03:00:31.074Z,50.63
2018-12-02T03:03:00.422Z,46.40
2018-12-02T03:05:29.667Z,44.93
2018-12-02T03:07:58.902Z,43.80
2018-12-02T03:10:28.239Z,45.27
2018-12-02T03:12:57.659Z,43.53
2018-12-02T03:15:26.917Z,41.70
2018-12-02T03:17:56.225Z,44.63
2018-12-02T03:20:26.288Z,41.53
2018-12-02T03:22:56.061Z,41.30
2018-12-02T03:25:27.028Z,42.33
2018-12-02T03:27:56.441Z,44.13
2018-12-02T03:30:26.445Z,45.80
2018-12-02T03:32:55.767Z,43.73
2018-12-02T03:35:26.005Z,44.50
2018-12-02T03:37:56.141Z,42.53
2018-12-02T03:40:28.062Z,43.90
2018-12-02T03:42:57.551Z,42.33
2018-12-02T03:45:27.741Z,46.10
2018-12-02T03:47:57.675Z,44.90
2018-12-02T03:50:26.958Z,46.77
2018-12-02T03:52:56.281Z,43.90
2018-12-02T03:55:25.664Z,43.37
2018-12-02T03:57:54.972Z,44.30
2018-12-02T04:00:25.223Z,44.63
2018-12-02T04:02:55.353Z,44.37
2018-12-02T04:05:25.617Z,45.50
2018-12-02T04:07:54.878Z,46.23
2018-12-02T04:10:24.178Z,46.30
2018-12-02T04:12:53.979Z,44.50
2018-12-02T04:15:25.076Z,46.40
2018-12-02T04:17:54.346Z,45.60
2018-12-02T04:20:23.515Z,48.67
2018-12-02T04:22:53.289Z,47.97
2018-12-02T04:25:24.650Z,45.93
2018-12-02T04:27:54.077Z,45.73
2018-12-02T04:30:24.080Z,44.93
2018-12-02T04:32:54.085Z,45.53
2018-12-02T04:35:26.791Z,45.87
2018-12-02T04:37:55.985Z,48.37
2018-12-02T04:40:25.184Z,44.27
2018-12-02T04:42:54.396Z,45.30
2018-12-02T04:45:23.708Z,48.20
2018-12-02T04:47:53.052Z,47.77
2018-12-02T04:50:23.864Z,45.67
2018-12-02T04:52:53.232Z,46.13
2018-12-02T04:55:22.502Z,47.70
2018-12-02T04:57:51.992Z,47.27
2018-12-02T05:00:21.644Z,50.73
2018-12-02T05:02:51.824Z,48.17
2018-12-02T05:05:22.015Z,45.10
2018-12-02T05:07:51.280Z,44.83
2018-12-02T05:10:21.174Z,46.70
2018-12-02T05:12:51.689Z,44.97
2018-12-02T05:15:21.690Z,60.50
2018-12-02T05:17:58.197Z,45.70
2018-12-02T05:20:27.394Z,46.67
2018-12-02T05:22:56.616Z,43.83
2018-12-02T05:25:25.912Z,45.03
2018-12-02T05:27:55.128Z,43.53
2018-12-02T05:30:24.689Z,46.27
2018-12-02T05:32:54.700Z,51.13
2018-12-02T05:35:23.875Z,53.77
2018-12-02T05:37:53.092Z,45.70
2018-12-02T05:40:24.993Z,46.50
2018-12-02T05:42:54.781Z,45.60
2018-12-02T05:45:24.300Z,44.63
2018-12-02T05:47:53.606Z,43.67
2018-12-02T05:50:23.770Z,46.37
2018-12-02T05:52:54.964Z,44.73
2018-12-02T05:55:31.856Z,43.50
2018-12-02T05:58:01.093Z,43.73
2018-12-02T06:00:30.399Z,46.23
2018-12-02T06:02:59.692Z,47.97
2018-12-02T06:05:28.948Z,47.90
2018-12-02T06:07:58.369Z,47.57
2018-12-02T06:10:27.755Z,46.93
2018-12-02T06:12:57.003Z,45.80
2018-12-02T06:15:26.245Z,47.57
2018-12-02T06:17:55.452Z,45.07
2018-12-02T06:20:26.650Z,50.77
2018-12-02T06:22:58.605Z,45.87
2018-12-02T06:25:27.940Z,45.80
2018-12-02T06:27:57.241Z,47.50
2018-12-02T06:30:28.281Z,44.57
2018-12-02T06:33:02.877Z,43.07
2018-12-02T06:35:32.177Z,44.40
2018-12-02T06:38:02.733Z,44.00
2018-12-02T06:40:31.997Z,42.53
2018-12-02T06:43:01.405Z,45.43
2018-12-02T06:45:31.060Z,45.40
2018-12-02T06:48:00.960Z,45.27
2018-12-02T06:50:35.696Z,46.43
2018-12-02T06:53:07.975Z,45.40
2018-12-02T06:56:04.686Z,48.87
2018-12-02T07:01:13.172Z,47.17
2018-12-02T07:07:43.657Z,44.53
2018-12-02T07:10:16.590Z,45.67
2018-12-02T07:23:17.258Z,48.37
2018-12-02T07:25:53.645Z,50.27
2018-12-02T07:28:25.769Z,45.97
2018-12-02T07:31:20.052Z,45.10
2018-12-02T07:34:38.041Z,45.23
2018-12-02T07:37:22.532Z,45.93
2018-12-02T07:40:13.926Z,51.33
2018-12-02T07:46:03.845Z,47.93
2018-12-02T07:48:34.375Z,48.97
2018-12-02T07:51:03.762Z,45.20
2018-12-02T07:53:34.777Z,45.93
2018-12-02T07:56:05.427Z,44.53
2018-12-02T07:58:38.239Z,44.30
2018-12-02T08:01:10.386Z,46.80
2018-12-02T08:03:44.213Z,46.07
2018-12-02T08:06:13.771Z,44.17
2018-12-02T08:08:44.033Z,43.97
2018-12-02T08:11:16.731Z,41.33
2018-12-02T08:13:47.473Z,43.10
2018-12-02T08:16:17.869Z,44.67
2018-12-02T08:18:46.997Z,42.90
2018-12-02T08:21:16.646Z,44.57
2018-12-02T08:23:49.518Z,44.20
2018-12-02T08:26:20.409Z,42.87
2018-12-02T08:28:53.680Z,43.97
2018-12-02T08:31:22.920Z,45.13
2018-12-02T08:33:58.639Z,47.87
2018-12-02T08:36:29.730Z,44.60
2018-12-02T08:39:05.150Z,43.37
2018-12-02T08:41:34.354Z,44.43
2018-12-02T08:44:03.662Z,43.17
2018-12-02T08:46:33.122Z,44.10
2018-12-02T08:49:02.573Z,45.03
2018-12-02T08:51:31.952Z,43.60
2018-12-02T08:54:01.220Z,47.03
2018-12-02T08:56:30.517Z,46.47
2018-12-02T08:59:00.456Z,43.23
2018-12-02T09:01:29.812Z,42.27
2018-12-02T09:03:59.104Z,41.97
2018-12-02T09:06:28.304Z,45.30
2018-12-02T09:08:57.746Z,43.03
2018-12-02T09:11:27.151Z,45.07
2018-12-02T09:13:56.604Z,46.57
2018-12-02T09:16:25.810Z,42.83
2018-12-02T09:18:54.977Z,43.13
2018-12-02T09:21:24.861Z,43.10
2018-12-02T09:23:54.045Z,42.53
2018-12-02T09:26:23.548Z,44.33
2018-12-02T09:28:52.782Z,43.90
2018-12-02T09:31:21.984Z,44.13
2018-12-02T09:33:51.136Z,43.97
2018-12-02T09:36:20.349Z,43.37
2018-12-02T09:38:49.542Z,46.00
2018-12-02T09:41:18.639Z,45.13
2018-12-02T09:43:47.870Z,42.33
2018-12-02T09:46:17.096Z,44.57
2018-12-02T09:48:46.174Z,46.13
2018-12-02T09:51:15.473Z,45.93
2018-12-02T09:53:44.644Z,45.00
2018-12-02T09:56:13.938Z,42.80
2018-12-02T09:58:43.335Z,46.63
2018-12-02T10:01:12.441Z,43.97
2018-12-02T10:03:41.912Z,45.03
2018-12-02T10:06:11.225Z,47.23
2018-12-02T10:08:40.369Z,46.83
2018-12-02T10:11:09.687Z,46.53
2018-12-02T10:13:38.908Z,45.77
2018-12-02T10:16:08.032Z,47.07
2018-12-02T10:18:38.036Z,46.63
2018-12-02T10:21:07.332Z,45.57
2018-12-02T10:23:37.753Z,45.23
2018-12-02T10:26:07.479Z,46.43
2018-12-02T10:28:36.741Z,46.00
2018-12-02T10:31:06.500Z,48.73
2018-12-02T10:33:36.141Z,47.50
2018-12-02T10:36:05.758Z,50.03
2018-12-02T10:38:34.971Z,50.03
2018-12-02T10:41:04.321Z,50.07
2018-12-02T10:43:33.694Z,50.10
2018-12-02T10:46:02.910Z,49.90
2018-12-02T10:48:32.157Z,48.80
2018-12-02T10:51:01.187Z,50.37
2018-12-02T10:53:30.296Z,50.10
2018-12-02T10:56:00.408Z,52.17
2018-12-02T10:58:30.816Z,52.87
2018-12-02T11:01:06.104Z,51.90
2018-12-02T11:03:35.308Z,53.13
2018-12-02T11:06:04.801Z,55.23
2018-12-02T11:08:34.131Z,53.87
2018-12-02T11:11:04.703Z,55.27
2018-12-02T11:13:33.974Z,52.23
2018-12-02T11:16:04.034Z,53.13
2018-12-02T11:18:33.317Z,52.27
2018-12-02T11:21:02.605Z,52.73
2018-12-02T11:23:32.004Z,52.00
2018-12-02T11:26:01.295Z,54.50
2018-12-02T11:28:30.688Z,52.47
2018-12-02T11:31:00.078Z,53.43
2018-12-02T11:33:29.298Z,51.80
2018-12-02T11:36:06.190Z,53.10
2018-12-02T11:38:38.334Z,52.57
2018-12-02T11:41:08.254Z,55.67
2018-12-02T11:49:12.276Z,53.07
2018-12-02T11:56:58.613Z,59.90
2018-12-02T11:59:36.793Z,57.10
2018-12-02T12:02:16.050Z,57.23
2018-12-02T12:04:49.141Z,54.53
2018-12-02T12:07:23.907Z,57.10
2018-12-02T12:10:06.098Z,59.90
2018-12-02T12:12:38.149Z,57.97
2018-12-02T12:15:13.428Z,62.30
2018-12-02T12:17:46.469Z,56.80
2018-12-02T12:20:18.880Z,57.53
2018-12-02T12:22:48.100Z,58.43
2018-12-02T12:25:17.456Z,59.60
2018-12-02T12:27:46.834Z,60.07
2018-12-02T12:30:26.115Z,59.67
2018-12-02T12:33:17.341Z,62.53
2018-12-02T12:35:51.034Z,57.87
2018-12-02T12:38:20.728Z,59.57
2018-12-02T12:40:51.489Z,65.90
2018-12-02T12:43:26.032Z,62.13
2018-12-02T12:45:55.519Z,61.37
2018-12-02T12:48:24.804Z,62.93
2018-12-02T12:50:54.115Z,62.30
2018-12-02T12:53:23.656Z,57.87
2018-12-02T12:55:53.003Z,60.23
2018-12-02T12:58:22.381Z,59.27
2018-12-02T13:00:51.946Z,59.53
2018-12-02T13:03:21.556Z,58.83
2018-12-02T13:05:50.826Z,60.17
2018-12-02T13:08:20.095Z,58.20
2018-12-02T13:10:49.362Z,61.30
2018-12-02T13:13:18.486Z,61.53
2018-12-02T13:15:47.646Z,63.37
2018-12-02T13:18:16.844Z,65.30
2018-12-02T13:21:01.303Z,62.30
2018-12-02T13:23:30.518Z,61.63
2018-12-02T13:25:59.708Z,62.73
2018-12-02T13:28:28.765Z,59.83
2018-12-02T13:30:57.912Z,60.00
2018-12-02T13:33:27.176Z,64.87
2018-12-02T13:35:56.384Z,64.47
2018-12-02T13:38:25.666Z,63.07
2018-12-02T13:40:54.881Z,62.27
2018-12-02T13:43:24.944Z,63.53
2018-12-02T13:45:54.036Z,62.57
2018-12-02T13:48:23.212Z,62.97
2018-12-02T13:50:52.384Z,59.83
2018-12-02T13:53:21.675Z,63.37
2018-12-02T13:55:50.902Z,60.93
2018-12-02T13:58:21.120Z,61.97
2018-12-02T14:00:50.431Z,65.07
2018-12-02T14:03:19.593Z,65.50
2018-12-02T14:05:49.460Z,61.70
2018-12-02T14:08:18.758Z,63.37
2018-12-02T14:10:47.836Z,60.73
2018-12-02T14:13:22.276Z,61.87
2018-12-02T14:17:02.759Z,62.27
2018-12-02T14:19:34.412Z,60.73
2018-12-02T14:22:01.625Z,63.03
2018-12-02T14:24:30.945Z,63.63
2018-12-02T14:27:00.211Z,62.97
2018-12-02T14:29:31.862Z,64.23
2018-12-02T14:32:02.824Z,62.77
2018-12-02T14:34:31.924Z,59.63
2018-12-02T14:37:01.033Z,64.50
2018-12-02T14:39:30.196Z,64.57
2018-12-02T14:41:59.323Z,62.53
2018-12-02T14:44:29.666Z,65.70
2018-12-02T14:46:57.850Z,66.87
2018-12-02T14:49:27.015Z,63.10
2018-12-02T14:51:56.313Z,61.30
2018-12-02T14:54:25.476Z,64.63
2018-12-02T14:56:54.706Z,65.10
2018-12-02T14:59:23.879Z,62.20
2018-12-02T15:01:53.226Z,65.07
2018-12-02T15:04:22.412Z,64.47
2018-12-02T15:06:51.557Z,66.00
2018-12-02T15:09:20.552Z,66.43
2018-12-02T15:11:54.068Z,63.27
2018-12-02T15:14:23.316Z,64.07
2018-12-02T15:16:52.435Z,65.57
2018-12-02T15:19:21.579Z,63.30
2018-12-02T15:21:50.765Z,63.03
2018-12-02T15:24:20.042Z,63.10
2018-12-02T15:26:49.217Z,62.20
2018-12-02T15:29:18.369Z,62.90
2018-12-02T15:31:47.482Z,63.07
2018-12-02T15:34:16.649Z,61.37
2018-12-02T15:36:45.978Z,62.07
2018-12-02T15:39:15.113Z,62.33
2018-12-02T15:41:44.218Z,60.87
2018-12-02T15:44:13.353Z,60.80
2018-12-02T15:46:42.536Z,61.30
2018-12-02T15:49:12.189Z,61.00
2018-12-02T15:51:41.383Z,58.50
2018-12-02T15:54:10.473Z,60.43
2018-12-02T15:56:39.757Z,59.57
2018-12-02T15:59:09.363Z,60.77
2018-12-02T16:01:38.748Z,62.30
2018-12-02T16:04:07.848Z,61.37
2018-12-02T16:06:36.941Z,63.00
2018-12-02T16:09:09.409Z,65.00
2018-12-02T16:11:38.604Z,64.60
2018-12-02T16:14:07.728Z,63.47
2018-12-02T16:16:36.827Z,62.20
2018-12-02T16:19:06.188Z,62.57
2018-12-02T16:21:35.328Z,67.57
2018-12-02T16:24:04.444Z,64.00
2018-12-02T16:26:34.110Z,65.47
2018-12-02T16:29:03.265Z,65.90
2018-12-02T16:31:32.492Z,66.43
2018-12-02T16:34:01.643Z,69.70
2018-12-02T16:36:30.879Z,66.43
2018-12-02T16:38:59.976Z,64.33
2018-12-02T16:41:29.104Z,65.37
2018-12-02T16:43:58.953Z,66.87
2018-12-02T16:46:28.072Z,65.13
2018-12-02T16:48:57.289Z,63.07
2018-12-02T16:51:26.383Z,65.30
2018-12-02T16:53:55.547Z,63.87
2018-12-02T16:56:24.597Z,69.27
2018-12-02T16:59:23.472Z,67.57
2018-12-02T17:01:55.962Z,64.17
2018-12-02T17:04:25.264Z,65.23
2018-12-02T17:06:54.382Z,66.93
2018-12-02T17:09:23.637Z,63.80
2018-12-02T17:11:52.829Z,64.03
2018-12-02T17:14:21.948Z,65.63
2018-12-02T17:16:51.160Z,64.93
2018-12-02T17:19:20.368Z,64.03
2018-12-02T17:21:50.506Z,60.50
2018-12-02T17:24:19.917Z,60.17
2018-12-02T17:26:49.107Z,61.87
2018-12-02T17:29:19.660Z,62.43
2018-12-02T17:31:52.166Z,62.93
2018-12-02T17:34:21.349Z,57.83
2018-12-02T17:36:50.501Z,61.30
2018-12-02T17:39:23.205Z,70.57
2018-12-02T17:42:09.240Z,64.03
2018-12-02T17:44:38.366Z,59.00
2018-12-02T17:47:07.990Z,58.43
2018-12-02T17:49:37.208Z,59.37
2018-12-02T17:52:07.686Z,58.73
2018-12-02T17:54:36.911Z,53.10
2018-12-02T17:57:06.182Z,55.77
2018-12-02T17:59:35.470Z,53.73
2018-12-02T18:02:04.655Z,57.37
2018-12-02T18:04:33.669Z,55.77
2018-12-02T18:07:02.897Z,56.37
2018-12-02T18:09:32.268Z,54.23
2018-12-02T18:12:01.651Z,54.97
2018-12-02T18:14:30.917Z,56.10
2018-12-02T18:17:00.932Z,55.03
2018-12-02T18:19:30.409Z,53.80
2018-12-02T18:21:59.785Z,53.40
2018-12-02T18:24:28.988Z,56.73
2018-12-02T18:26:58.292Z,53.30
2018-12-02T18:29:27.715Z,55.70
2018-12-02T18:31:56.972Z,56.50
2018-12-02T18:34:26.224Z,55.00
2018-12-02T18:36:55.929Z,52.73
2018-12-02T18:39:25.213Z,56.80
2018-12-02T18:41:55.227Z,54.13
2018-12-02T18:44:24.512Z,56.60
2018-12-02T18:46:54.061Z,54.40
2018-12-02T18:49:23.418Z,54.40
2018-12-02T18:51:52.838Z,53.17
2018-12-02T18:54:22.123Z,56.77
2018-12-02T18:56:51.636Z,56.37
2018-12-02T18:59:21.206Z,55.77
2018-12-02T19:01:50.429Z,58.43
2018-12-02T19:04:19.725Z,55.87
2018-12-02T19:06:48.976Z,55.90
2018-12-02T19:09:18.325Z,55.00
2018-12-02T19:11:47.485Z,57.23
2018-12-02T19:14:16.830Z,58.43
2018-12-02T19:16:46.326Z,57.20
2018-12-02T19:19:15.644Z,56.93
2018-12-02T19:21:44.982Z,60.97
2018-12-02T19:24:14.305Z,60.97
2018-12-02T19:26:43.757Z,61.10
2018-12-02T19:29:13.102Z,58.87
2018-12-02T19:31:43.463Z,62.47
2018-12-02T19:34:12.706Z,61.13
2018-12-02T19:36:47.055Z,63.57
2018-12-02T19:39:16.495Z,59.70
2018-12-02T19:41:45.787Z,61.77
2018-12-02T19:44:15.649Z,67.73
2018-12-02T19:46:46.257Z,68.27
2018-12-02T19:49:15.724Z,68.13
2018-12-02T19:51:44.944Z,78.03
2018-12-02T19:54:14.333Z,78.83
2018-12-02T19:56:43.617Z,73.33
2018-12-02T19:59:14.084Z,82.33
2018-12-02T20:01:43.824Z,83.80
2018-12-02T20:04:13.164Z,80.40
2018-12-02T20:06:42.514Z,78.07
2018-12-02T20:09:11.999Z,83.57
2018-12-02T20:11:41.304Z,83.63
2018-12-02T20:14:10.628Z,78.17
2018-12-02T20:16:40.067Z,79.60
2018-12-02T20:19:14.552Z,80.10
2018-12-02T20:21:43.884Z,84.97
2018-12-02T20:24:18.595Z,80.67
2018-12-02T20:26:47.986Z,83.30
2018-12-02T20:29:17.463Z,83.80
2018-12-02T20:31:46.668Z,82.40
2018-12-02T20:34:15.884Z,85.70
2018-12-02T20:36:46.044Z,86.20
2018-12-02T20:39:15.363Z,80.10
2018-12-02T20:41:44.563Z,85.53
2018-12-02T20:44:13.776Z,80.27
2018-12-02T20:46:43.144Z,81.60
2018-12-02T20:49:12.576Z,80.90
2018-12-02T20:51:41.889Z,81.90
2018-12-02T20:54:11.074Z,77.13
2018-12-02T20:56:40.376Z,78.17
2018-12-02T20:59:10.180Z,79.00
2018-12-02T21:01:40.161Z,77.93
2018-12-02T21:04:11.545Z,77.77
2018-12-02T21:06:40.932Z,79.60
2018-12-02T21:09:10.264Z,76.70
2018-12-02T21:11:40.673Z,75.97
2018-12-02T21:14:08.859Z,73.40
2018-12-02T21:16:38.094Z,76.87
2018-12-02T21:19:07.235Z,75.83
2018-12-02T21:21:37.359Z,76.67
2018-12-02T21:24:05.982Z,75.70
2018-12-02T21:26:35.267Z,78.97
2018-12-02T21:29:04.484Z,76.83
2018-12-02T21:31:33.630Z,74.37
2018-12-02T21:34:02.796Z,74.23
2018-12-02T21:36:31.841Z,70.70
2018-12-02T21:39:01.144Z,74.40
2018-12-02T21:41:30.277Z,73.90
2018-12-02T21:43:59.576Z,71.10
2018-12-02T21:46:28.646Z,74.67
2018-12-02T21:48:57.762Z,72.10
2018-12-02T21:51:27.004Z,73.53
2018-12-02T21:53:56.162Z,69.93
2018-12-02T21:56:25.311Z,76.03
2018-12-02T21:58:54.356Z,72.07
2018-12-02T22:01:23.544Z,71.77
2018-12-02T22:03:52.684Z,70.10
2018-12-02T22:06:21.780Z,72.23
2018-12-02T22:08:50.871Z,70.73
2018-12-02T22:11:20.096Z,70.87
2018-12-02T22:13:49.186Z,71.03
2018-12-02T22:16:18.385Z,70.37
2018-12-02T22:18:47.671Z,71.07
2018-12-02T22:21:16.900Z,68.90
2018-12-02T22:23:46.103Z,69.97
2018-12-02T22:26:15.275Z,67.20
2018-12-02T22:28:44.581Z,72.67
2018-12-02T22:31:13.709Z,69.27
2018-12-02T22:33:42.783Z,70.50
2018-12-02T22:36:14.227Z,73.67
2018-12-02T22:38:41.269Z,66.70
2018-12-02T22:41:10.508Z,64.23
2018-12-02T22:43:39.640Z,70.57
2018-12-02T22:46:08.967Z,66.17
2018-12-02T22:48:38.164Z,67.70
2018-12-02T22:51:07.280Z,64.23
2018-12-02T22:53:36.454Z,64.57
2018-12-02T22:56:05.960Z,63.97
2018-12-02T22:58:35.076Z,68.00
2018-12-02T23:01:09.402Z,65.53
2018-12-02T23:03:38.493Z,68.97
2018-12-02T23:06:07.612Z,67.93
2018-12-02T23:08:37.496Z,63.50
2018-12-02T23:11:07.168Z,66.67
2018-12-02T23:13:36.463Z,67.77
2018-12-02T23:16:05.713Z,67.93
2018-12-02T23:18:35.075Z,69.90
2018-12-02T23:21:04.292Z,69.27
2018-12-02T23:23:33.469Z,66.40
2018-12-02T23:26:02.619Z,70.20
2018-12-02T23:28:31.951Z,72.60
2018-12-02T23:31:01.119Z,72.73
2018-12-02T23:33:30.269Z,68.70
2018-12-02T23:35:59.652Z,64.90
2018-12-02T23:38:28.779Z,69.63
2018-12-02T23:40:58.015Z,70.80
2018-12-02T23:43:27.256Z,72.23
2018-12-02T23:45:56.372Z,70.17
2018-12-02T23:48:25.556Z,69.77
2018-12-02T23:50:54.733Z,65.20
2018-12-02T23:53:24.070Z,66.93
2018-12-02T23:55:53.352Z,70.23
2018-12-02T23:58:22.616Z,69.80
